createdAt,value
2019-05-17T00:00:09.622Z,4.05
2019-05-17T00:02:41.015Z,3.87
2019-05-17T00:07:39.641Z,3.87
2019-05-17T00:10:09.919Z,4.15
2019-05-17T00:12:39.720Z,4.33
2019-05-17T00:17:38.482Z,3.80
2019-05-17T00:20:09.083Z,4.33
2019-05-17T00:22:38.917Z,2.92
2019-05-17T00:25:09.426Z,3.22
2019-05-17T00:27:39.244Z,3.50
2019-05-17T00:32:38.051Z,3.17
2019-05-17T00:35:08.251Z,3.30
2019-05-17T00:37:38.098Z,3.40
2019-05-17T00:42:37.527Z,3.02
2019-05-17T00:45:08.903Z,3.33
2019-05-17T00:47:41.806Z,3.15
2019-05-17T00:50:10.685Z,3.50
2019-05-17T00:52:40.409Z,3.30
2019-05-17T00:55:10.301Z,3.52
2019-05-17T01:00:09.625Z,3.33
2019-05-17T01:02:39.401Z,3.02
2019-05-17T01:05:09.086Z,3.83
2019-05-17T01:07:38.818Z,3.37
2019-05-17T01:10:09.349Z,3.50
2019-05-17T01:12:39.089Z,3.42
2019-05-17T01:15:09.159Z,3.58
2019-05-17T01:17:38.815Z,3.20
2019-05-17T01:20:11.366Z,3.25
2019-05-17T01:22:41.045Z,3.40
2019-05-17T01:25:11.564Z,3.33
2019-05-17T01:27:41.352Z,3.60
2019-05-17T01:30:11.706Z,3.45
2019-05-17T01:32:41.557Z,3.37
2019-05-17T01:37:40.297Z,3.40
2019-05-17T01:40:10.498Z,3.60
2019-05-17T01:42:40.288Z,3.77
2019-05-17T01:45:10.404Z,3.65
2019-05-17T01:47:40.122Z,3.67
2019-05-17T01:50:10.647Z,3.37
2019-05-17T01:52:40.476Z,3.45
2019-05-17T01:55:10.432Z,3.77
2019-05-17T02:00:10.243Z,3.50
2019-05-17T02:02:41.511Z,3.58
2019-05-17T02:05:11.656Z,3.60
2019-05-17T02:07:41.435Z,3.50
2019-05-17T02:10:11.632Z,3.75
2019-05-17T02:12:41.292Z,3.30
2019-05-17T02:15:12.973Z,3.75
2019-05-17T02:17:42.775Z,4.10
2019-05-17T02:22:42.965Z,3.52
2019-05-17T02:25:13.556Z,3.50
2019-05-17T02:27:44.772Z,3.30
2019-05-17T02:30:16.666Z,3.83
2019-05-17T02:32:46.852Z,4.05
2019-05-17T02:35:16.594Z,4.60
2019-05-17T02:37:46.328Z,5.60
2019-05-17T02:40:17.630Z,6.55
2019-05-17T02:42:47.354Z,6.03
2019-05-17T02:45:17.913Z,5.75
2019-05-17T02:47:47.675Z,5.78
2019-05-17T02:50:18.846Z,5.47
2019-05-17T02:52:48.639Z,6.28
2019-05-17T02:55:18.481Z,5.55
2019-05-17T02:57:48.144Z,5.55
2019-05-17T03:00:18.072Z,6.60
2019-05-17T03:05:16.675Z,6.72
2019-05-17T03:07:46.367Z,7.28
2019-05-17T03:10:24.160Z,7.37
2019-05-17T03:12:47.581Z,7.37
2019-05-17T03:15:17.421Z,7.65
2019-05-17T03:20:16.625Z,8.15
2019-05-17T03:22:46.336Z,8.48
2019-05-17T03:25:16.306Z,8.13
2019-05-17T03:27:45.985Z,8.75
2019-05-17T03:30:18.375Z,8.83
2019-05-17T03:32:48.958Z,8.98
2019-05-17T03:35:19.095Z,8.53
2019-05-17T03:40:55.438Z,8.78
2019-05-17T03:42:53.559Z,8.60
2019-05-17T03:45:22.833Z,8.18
2019-05-17T03:47:53.225Z,8.83
2019-05-17T03:50:23.163Z,8.68
2019-05-17T03:52:53.738Z,8.98
2019-05-17T03:55:23.681Z,8.65
2019-05-17T03:57:53.652Z,8.80
2019-05-17T04:02:53.904Z,8.45
2019-05-17T04:05:23.805Z,9.08
2019-05-17T04:07:53.992Z,8.63
2019-05-17T04:10:23.799Z,8.28
2019-05-17T04:15:23.923Z,8.03
2019-05-17T04:17:54.933Z,8.13
2019-05-17T04:20:24.682Z,8.48
2019-05-17T04:22:55.141Z,8.55
2019-05-17T04:25:24.877Z,9.18
2019-05-17T04:27:54.641Z,7.80
2019-05-17T04:30:24.407Z,8.60
2019-05-17T04:32:54.123Z,8.40
2019-05-17T04:35:23.680Z,9.05
2019-05-17T04:37:53.432Z,8.60
2019-05-17T04:40:23.312Z,8.45
2019-05-17T04:42:54.544Z,8.25
2019-05-17T04:45:25.867Z,8.15
2019-05-17T04:47:55.648Z,7.92
2019-05-17T04:50:25.344Z,8.03
2019-05-17T04:52:55.007Z,8.53
2019-05-17T04:55:24.650Z,8.20
2019-05-17T04:57:54.824Z,8.70
2019-05-17T05:00:24.538Z,9.08
2019-05-17T05:02:54.188Z,8.83
2019-05-17T05:05:23.969Z,9.30
2019-05-17T05:07:53.806Z,9.40
2019-05-17T05:10:23.542Z,9.00
2019-05-17T05:12:53.247Z,9.80
2019-05-17T05:15:43.297Z,9.15
2019-05-17T05:18:13.235Z,8.90
2019-05-17T05:20:43.814Z,8.65
2019-05-17T05:23:13.777Z,9.20
2019-05-17T05:25:43.420Z,8.45
2019-05-17T05:28:13.113Z,8.60
2019-05-17T05:30:42.724Z,8.15
2019-05-17T05:33:12.939Z,7.95
2019-05-17T05:35:42.912Z,5.80
2019-05-17T05:38:13.153Z,5.17
2019-05-17T05:40:43.867Z,5.47
2019-05-17T05:43:13.430Z,5.85
2019-05-17T05:45:43.038Z,5.37
2019-05-17T05:48:13.112Z,5.10
2019-05-17T05:50:43.518Z,4.80
2019-05-17T05:53:13.339Z,4.75
2019-05-17T05:55:44.040Z,4.62
2019-05-17T05:58:14.992Z,4.87
2019-05-17T06:00:45.419Z,5.08
2019-05-17T06:03:15.094Z,5.20
2019-05-17T06:05:44.875Z,4.85
2019-05-17T06:08:18.956Z,5.10
2019-05-17T06:10:48.768Z,4.92
2019-05-17T06:15:58.110Z,5.42
2019-05-17T06:18:33.323Z,5.50
2019-05-17T06:21:03.591Z,5.90
2019-05-17T06:23:33.391Z,6.42
2019-05-17T06:26:04.450Z,6.22
2019-05-17T06:28:34.452Z,5.75
2019-05-17T06:31:04.076Z,6.10
2019-05-17T06:33:34.901Z,5.67
2019-05-17T06:36:04.789Z,5.50
2019-05-17T06:38:34.475Z,5.65
2019-05-17T06:41:04.161Z,5.60
2019-05-17T06:43:34.839Z,5.10
2019-05-17T06:46:04.606Z,5.97
2019-05-17T06:48:34.292Z,5.47
2019-05-17T06:51:03.923Z,5.25
2019-05-17T06:53:33.560Z,5.42
2019-05-17T06:56:04.898Z,5.65
2019-05-17T06:58:34.727Z,5.90
2019-05-17T07:03:33.344Z,6.10
2019-05-17T07:06:04.586Z,5.92
2019-05-17T07:08:34.192Z,6.00
2019-05-17T07:11:03.817Z,6.35
2019-05-17T07:13:34.536Z,6.55
2019-05-17T07:18:33.148Z,6.87
2019-05-17T07:21:03.686Z,6.30
2019-05-17T07:23:33.452Z,6.95
2019-05-17T07:26:03.168Z,6.53
2019-05-17T07:31:01.674Z,7.45
2019-05-17T07:33:31.262Z,6.97
2019-05-17T07:36:00.864Z,7.08
2019-05-17T07:38:30.479Z,6.00
2019-05-17T07:41:01.132Z,6.00
2019-05-17T07:43:30.675Z,7.78
2019-05-17T07:46:00.621Z,7.30
2019-05-17T07:48:31.554Z,6.47
2019-05-17T07:51:01.210Z,6.28
2019-05-17T07:53:30.932Z,7.67
2019-05-17T07:56:01.486Z,6.67
2019-05-17T07:58:31.034Z,6.83
2019-05-17T08:01:02.148Z,6.70
2019-05-17T08:03:31.981Z,6.35
2019-05-17T08:06:01.676Z,6.08
2019-05-17T08:08:31.491Z,7.30
2019-05-17T08:11:01.068Z,6.58
2019-05-17T08:13:33.704Z,6.70
2019-05-17T08:16:02.100Z,6.72
2019-05-17T08:18:31.640Z,7.15
2019-05-17T08:21:11.340Z,7.40
2019-05-17T08:26:10.746Z,6.77
2019-05-17T08:28:40.788Z,7.60
2019-05-17T08:31:11.845Z,7.12
2019-05-17T08:33:44.108Z,7.90
2019-05-17T08:36:16.363Z,7.55
2019-05-17T08:38:49.995Z,7.70
2019-05-17T08:41:20.870Z,6.92
2019-05-17T08:43:52.373Z,6.50
2019-05-17T08:46:22.205Z,6.60
2019-05-17T08:48:53.846Z,6.08
2019-05-17T08:51:23.619Z,7.00
2019-05-17T08:56:23.723Z,6.60
2019-05-17T08:58:53.454Z,5.75
2019-05-17T09:03:53.414Z,5.65
2019-05-17T09:06:24.375Z,6.70
2019-05-17T09:08:54.013Z,6.15
2019-05-17T09:11:23.759Z,5.55
2019-05-17T09:16:23.670Z,5.83
2019-05-17T09:21:22.303Z,5.62
2019-05-17T09:26:20.816Z,4.78
2019-05-17T09:28:50.660Z,5.40
2019-05-17T09:33:50.355Z,5.70
2019-05-17T09:36:20.592Z,5.55
2019-05-17T09:38:50.311Z,6.00
2019-05-17T09:43:51.148Z,5.33
2019-05-17T09:46:20.887Z,5.90
2019-05-17T09:53:49.739Z,5.67
2019-05-17T09:56:20.652Z,5.80
2019-05-17T09:58:50.573Z,7.03
2019-05-17T10:01:20.560Z,5.20
2019-05-17T10:03:50.745Z,5.40
2019-05-17T10:06:20.607Z,5.30
2019-05-17T10:08:50.376Z,4.92
2019-05-17T10:13:50.212Z,5.17
2019-05-17T10:16:20.454Z,5.10
2019-05-17T10:18:50.344Z,5.50
2019-05-17T10:21:21.753Z,5.33
2019-05-17T10:23:51.450Z,5.37
2019-05-17T10:28:51.601Z,5.33
2019-05-17T10:31:21.577Z,6.17
2019-05-17T10:33:51.385Z,5.05
2019-05-17T10:36:21.411Z,5.55
2019-05-17T10:38:51.375Z,5.80
2019-05-17T10:41:22.166Z,5.10
2019-05-17T10:43:51.874Z,5.30
2019-05-17T10:48:50.396Z,5.53
2019-05-17T10:53:53.949Z,5.17
2019-05-17T10:56:24.498Z,5.80
2019-05-17T10:58:54.128Z,5.40
2019-05-17T11:03:52.658Z,5.00
2019-05-17T11:08:51.258Z,4.90
2019-05-17T11:13:53.000Z,5.30
2019-05-17T11:16:22.462Z,4.72
2019-05-17T11:21:23.960Z,4.62
2019-05-17T11:26:22.596Z,4.47
2019-05-17T11:28:52.376Z,4.70
2019-05-17T11:31:22.217Z,4.40
2019-05-17T11:33:52.058Z,4.83
2019-05-17T11:36:21.943Z,5.03
2019-05-17T11:38:56.428Z,5.17
2019-05-17T11:41:23.076Z,5.92
2019-05-17T11:43:52.881Z,5.50
2019-05-17T11:46:59.578Z,5.30
2019-05-17T11:49:30.397Z,5.20
2019-05-17T11:52:00.269Z,4.92
2019-05-17T11:54:30.067Z,4.70
2019-05-17T11:57:03.068Z,4.47
2019-05-17T11:59:32.864Z,4.40
2019-05-17T12:02:02.692Z,4.67
2019-05-17T12:04:32.560Z,4.33
2019-05-17T12:07:03.767Z,4.87
2019-05-17T12:09:37.722Z,4.55
2019-05-17T12:12:06.796Z,4.50
2019-05-17T12:14:37.590Z,4.62
2019-05-17T12:17:08.946Z,4.72
2019-05-17T12:19:38.634Z,4.85
2019-05-17T12:24:38.986Z,4.65
2019-05-17T12:29:37.769Z,4.40
2019-05-17T12:32:09.148Z,4.53
2019-05-17T12:34:38.838Z,4.50
2019-05-17T12:37:08.595Z,4.60
2019-05-17T12:39:40.070Z,4.70
2019-05-17T12:42:12.013Z,4.87
2019-05-17T12:44:43.654Z,4.72
2019-05-17T12:47:13.660Z,4.80
2019-05-17T12:49:44.860Z,4.85
2019-05-17T12:54:43.645Z,4.92
2019-05-17T12:57:13.458Z,5.00
2019-05-17T12:59:44.815Z,5.00
2019-05-17T13:02:17.857Z,4.80
2019-05-17T13:04:47.584Z,4.87
2019-05-17T13:07:20.390Z,4.50
2019-05-17T13:09:52.629Z,4.70
2019-05-17T13:12:23.525Z,4.33
2019-05-17T13:14:53.321Z,4.35
2019-05-17T13:17:22.955Z,4.60
2019-05-17T13:22:21.496Z,4.42
2019-05-17T13:24:51.337Z,4.58
2019-05-17T13:27:21.182Z,4.35
2019-05-17T13:29:51.061Z,4.35
2019-05-17T13:32:21.821Z,4.62
2019-05-17T13:34:51.615Z,4.90
2019-05-17T13:37:22.573Z,5.35
2019-05-17T13:39:53.486Z,5.33
2019-05-17T13:42:24.816Z,5.22
2019-05-17T13:44:54.707Z,5.40
2019-05-17T13:47:26.312Z,5.25
2019-05-17T13:49:57.591Z,4.62
2019-05-17T13:52:27.356Z,4.87
2019-05-17T13:55:00.265Z,4.97
2019-05-17T13:57:31.284Z,4.78
2019-05-17T14:00:01.188Z,4.55
2019-05-17T14:02:33.936Z,5.22
2019-05-17T14:05:05.143Z,4.87
2019-05-17T14:07:35.078Z,4.90
2019-05-17T14:10:06.547Z,4.90
2019-05-17T14:12:36.467Z,4.95
2019-05-17T14:15:09.530Z,4.90
2019-05-17T14:17:39.337Z,5.12
2019-05-17T14:20:09.167Z,5.03
2019-05-17T14:22:39.037Z,4.87
2019-05-17T14:25:09.306Z,4.65
2019-05-17T14:27:39.069Z,4.97
2019-05-17T14:30:08.962Z,5.22
2019-05-17T14:32:38.705Z,5.45
2019-05-17T14:35:08.494Z,5.60
2019-05-17T14:37:38.215Z,5.95
2019-05-17T14:40:08.147Z,6.40
2019-05-17T14:42:37.857Z,6.50
2019-05-17T14:45:08.139Z,5.58
2019-05-17T14:47:37.871Z,5.80
2019-05-17T14:50:07.813Z,5.75
2019-05-17T14:52:37.512Z,6.55
2019-05-17T14:55:07.318Z,7.37
2019-05-17T14:57:37.043Z,6.60
2019-05-17T15:00:07.434Z,6.40
2019-05-17T15:02:37.061Z,5.35
2019-05-17T15:05:07.514Z,5.05
2019-05-17T15:07:37.161Z,5.08
2019-05-17T15:10:07.672Z,4.80
2019-05-17T15:12:37.280Z,4.42
2019-05-17T15:15:08.289Z,4.17
2019-05-17T15:17:37.908Z,5.75
2019-05-17T15:20:08.480Z,4.78
2019-05-17T15:22:38.099Z,4.90
2019-05-17T15:25:08.124Z,4.28
2019-05-17T15:27:37.731Z,4.50
2019-05-17T15:30:07.626Z,4.70
2019-05-17T15:32:37.251Z,5.50
2019-05-17T15:35:07.853Z,4.90
2019-05-17T15:37:37.522Z,5.33
2019-05-17T15:40:07.703Z,5.67
2019-05-17T15:42:44.270Z,5.28
2019-05-17T15:45:08.831Z,4.80
2019-05-17T15:47:38.443Z,5.47
2019-05-17T15:50:08.421Z,5.03
2019-05-17T15:52:38.177Z,4.55
2019-05-17T15:55:08.760Z,4.58
2019-05-17T15:57:38.304Z,5.25
2019-05-17T16:00:08.666Z,4.80
2019-05-17T16:02:38.359Z,4.70
2019-05-17T16:05:08.133Z,4.45
2019-05-17T16:07:38.983Z,4.62
2019-05-17T16:10:09.303Z,5.20
2019-05-17T16:12:38.905Z,4.50
2019-05-17T16:15:09.326Z,4.80
2019-05-17T16:17:38.933Z,4.60
2019-05-17T16:20:10.190Z,4.20
2019-05-17T16:22:39.978Z,4.42
2019-05-17T16:25:09.655Z,4.47
2019-05-17T16:27:39.275Z,4.55
2019-05-17T16:30:09.071Z,4.33
2019-05-17T16:32:38.699Z,4.80
2019-05-17T16:35:08.476Z,4.70
2019-05-17T16:37:39.239Z,4.28
2019-05-17T16:40:09.375Z,4.40
2019-05-17T16:42:38.967Z,4.33
2019-05-17T16:45:10.926Z,4.50
2019-05-17T16:47:40.560Z,4.62
2019-05-17T16:50:10.363Z,4.80
2019-05-17T16:52:40.033Z,4.37
2019-05-17T16:55:09.660Z,4.50
2019-05-17T16:57:39.419Z,4.58
2019-05-17T17:00:29.733Z,4.75
2019-05-17T17:02:59.385Z,4.25
2019-05-17T17:05:29.010Z,4.47
2019-05-17T17:10:27.388Z,4.70
2019-05-17T17:15:25.834Z,4.05
2019-05-17T17:17:55.580Z,4.20
2019-05-17T17:22:54.050Z,3.90
2019-05-17T17:25:24.653Z,4.22
2019-05-17T17:30:23.363Z,4.20
2019-05-17T17:32:53.066Z,4.65
2019-05-17T17:37:51.503Z,4.30
2019-05-17T17:42:50.720Z,4.30
2019-05-17T17:47:53.528Z,5.30
2019-05-17T17:52:52.367Z,4.45
2019-05-17T17:55:21.987Z,4.35
2019-05-17T18:00:22.133Z,4.50
2019-05-17T18:02:51.900Z,4.47
2019-05-17T18:05:24.782Z,4.53
2019-05-17T18:07:52.896Z,4.30
2019-05-17T18:10:31.508Z,5.50
2019-05-17T18:13:01.337Z,5.55
2019-05-17T18:15:37.811Z,5.15
2019-05-17T18:18:07.502Z,5.15
2019-05-17T18:23:05.948Z,4.85
2019-05-17T18:25:35.650Z,5.03
2019-05-17T18:30:34.723Z,5.72
2019-05-17T18:33:05.183Z,6.15
2019-05-17T18:35:35.283Z,5.58
2019-05-17T18:38:05.174Z,5.62
2019-05-17T18:40:34.973Z,5.90
2019-05-17T18:45:33.511Z,9.48
2019-05-17T18:50:31.971Z,6.00
2019-05-17T18:53:02.506Z,6.42
2019-05-17T18:55:33.275Z,5.75
2019-05-17T18:58:02.981Z,5.70
2019-05-17T19:00:32.600Z,5.35
2019-05-17T19:03:02.129Z,5.42
2019-05-17T19:05:31.806Z,5.65
2019-05-17T19:10:30.312Z,5.00
2019-05-17T19:15:28.755Z,5.00
2019-05-17T19:17:58.463Z,6.60
2019-05-17T19:20:28.033Z,7.75
2019-05-17T19:22:57.745Z,6.05
2019-05-17T19:25:27.344Z,7.20
2019-05-17T19:27:56.924Z,5.90
2019-05-17T19:30:26.941Z,5.20
2019-05-17T19:32:56.538Z,5.15
2019-05-17T19:35:27.293Z,5.25
2019-05-17T19:37:56.852Z,5.20
2019-05-17T19:40:26.577Z,4.90
2019-05-17T19:45:24.932Z,5.05
2019-05-17T19:47:54.598Z,5.87
2019-05-17T19:50:24.298Z,5.00
2019-05-17T19:52:55.772Z,5.55
2019-05-17T19:55:25.495Z,5.10
2019-05-17T19:57:55.148Z,4.67
2019-05-17T20:00:24.850Z,5.15
2019-05-17T20:05:23.496Z,5.47
2019-05-17T20:07:53.264Z,5.35
2019-05-17T20:10:23.228Z,5.45
2019-05-17T20:12:52.908Z,6.40
2019-05-17T20:15:34.156Z,5.97
2019-05-17T20:17:57.178Z,6.60
2019-05-17T20:20:26.802Z,6.78
2019-05-17T20:24:04.801Z,7.17
2019-05-17T20:26:35.250Z,7.03
2019-05-17T20:29:36.207Z,10.25
2019-05-17T20:32:07.964Z,7.67
2019-05-17T20:34:39.259Z,6.55
2019-05-17T20:37:18.967Z,6.20
2019-05-17T20:42:23.121Z,5.35
2019-05-17T20:44:52.861Z,4.50
2019-05-17T20:47:22.448Z,4.33
2019-05-17T20:49:52.070Z,4.37
2019-05-17T20:52:21.706Z,4.37
2019-05-17T20:54:51.335Z,4.23
2019-05-17T20:57:20.934Z,4.22
2019-05-17T20:59:50.499Z,4.58
2019-05-17T21:02:20.130Z,4.67
2019-05-17T21:04:49.720Z,4.70
2019-05-17T21:07:20.659Z,5.00
2019-05-17T21:12:18.966Z,4.42
2019-05-17T21:14:48.711Z,4.70
2019-05-17T21:17:18.213Z,5.12
2019-05-17T21:19:47.957Z,4.87
2019-05-17T21:22:17.571Z,5.47
2019-05-17T21:24:47.324Z,5.17
2019-05-17T21:27:17.079Z,4.87
2019-05-17T21:32:15.425Z,4.03
2019-05-17T21:34:44.971Z,4.45
2019-05-17T21:37:14.517Z,4.30
2019-05-17T21:39:44.114Z,4.42
2019-05-17T21:42:13.744Z,4.20
2019-05-17T21:44:43.425Z,4.20
2019-05-17T21:47:13.041Z,4.33
2019-05-17T21:49:42.681Z,4.03
2019-05-17T21:52:12.300Z,3.95
2019-05-17T21:54:41.947Z,3.85
2019-05-17T21:57:11.560Z,4.37
2019-05-17T21:59:41.113Z,3.77
2019-05-17T22:02:10.851Z,3.85
2019-05-17T22:07:09.494Z,3.72
2019-05-17T22:09:39.034Z,3.80
2019-05-17T22:12:10.285Z,4.28
2019-05-17T22:14:39.891Z,3.75
2019-05-17T22:17:09.897Z,4.17
2019-05-17T22:19:39.598Z,4.00
2019-05-17T22:22:09.211Z,3.83
2019-05-17T22:24:38.781Z,4.47
2019-05-17T22:27:08.383Z,4.00
2019-05-17T22:29:37.919Z,4.37
2019-05-17T22:32:07.501Z,4.80
2019-05-17T22:34:37.162Z,4.03
2019-05-17T22:37:06.773Z,4.70
2019-05-17T22:39:36.316Z,4.62
2019-05-17T22:42:05.991Z,4.58
2019-05-17T22:44:36.241Z,4.80
2019-05-17T22:47:06.022Z,4.45
2019-05-17T22:52:04.483Z,4.42
2019-05-17T22:54:34.039Z,5.20
2019-05-17T22:57:03.605Z,4.80
2019-05-17T22:59:33.143Z,4.53
2019-05-17T23:02:02.732Z,4.50
2019-05-17T23:04:32.298Z,4.45
2019-05-17T23:07:01.839Z,4.20
2019-05-17T23:09:31.392Z,4.25
2019-05-17T23:12:00.927Z,4.25
2019-05-17T23:14:31.491Z,4.47
2019-05-17T23:17:01.033Z,4.42
2019-05-17T23:19:30.577Z,3.80
2019-05-17T23:22:00.193Z,3.90
2019-05-17T23:24:29.749Z,3.92
2019-05-17T23:26:59.312Z,3.83
2019-05-17T23:29:29.103Z,3.90
2019-05-17T23:34:28.323Z,3.70
2019-05-17T23:36:57.878Z,3.75
2019-05-17T23:39:27.473Z,3.60
2019-05-17T23:41:57.154Z,4.08
2019-05-17T23:44:26.766Z,3.80
2019-05-17T23:47:06.589Z,3.92
2019-05-17T23:49:27.484Z,3.35
2019-05-17T23:51:57.027Z,3.25
2019-05-17T23:54:26.559Z,3.20
2019-05-17T23:56:56.105Z,3.55
2019-05-17T23:59:25.720Z,3.17
